sensor_id;sensor_type;location;lat;lon;timestamp;pressure;altitude;pressure_sealevel;temperature;humidity
45523;BME280;31254;51.680;5.394;2023-07-20T00:01:53;101171.03;;;17.92;55.05
45523;BME280;31254;51.680;5.394;2023-07-20T00:04:20;101361.63;;;19.03;55.31
45523;BME280;31254;51.680;5.394;2023-07-20T00:06:47;101253.44;;;18.40;55.27
45523;BME280;31254;51.680;5.394;2023-07-20T00:09:14;101230.63;;;18.16;55.00
45523;BME280;31254;51.680;5.394;2023-07-20T00:11:48;101266.13;;;18.49;55.09
45523;BME280;31254;51.680;5.394;2023-07-20T00:14:17;101423.56;;;19.39;55.58
45523;BME280;31254;51.680;5.394;2023-07-20T00:16:45;101357.28;;;18.94;55.17
45523;BME280;31254;51.680;5.394;2023-07-20T00:19:13;101287.63;;;18.54;55.58
45523;BME280;31254;51.680;5.394;2023-07-20T00:21:39;101320.59;;;18.70;55.40
45523;BME280;31254;51.680;5.394;2023-07-20T00:24:09;101371.66;;;19.04;55.87
45523;BME280;31254;51.680;5.394;2023-07-20T00:26:36;101457.50;;;19.47;55.83
45523;BME280;31254;51.680;5.394;2023-07-20T00:29:03;101437.38;;;19.39;55.44
45523;BME280;31254;51.680;5.394;2023-07-20T00:31:30;101451.53;;;19.44;55.71
45523;BME280;31254;51.680;5.394;2023-07-20T00:33:57;101387.41;;;19.04;55.64
45523;BME280;31254;51.680;5.394;2023-07-20T00:36:26;101329.06;;;18.69;55.98
45523;BME280;31254;51.680;5.394;2023-07-20T00:38:53;101230.72;;;18.08;56.59
45523;BME280;31254;51.680;5.394;2023-07-20T00:41:20;101330.00;;;18.61;56.29
45523;BME280;31254;51.680;5.394;2023-07-20T00:43:46;101408.75;;;19.10;56.10
45523;BME280;31254;51.680;5.394;2023-07-20T00:46:16;101388.63;;;19.01;56.17
45523;BME280;31254;51.680;5.394;2023-07-20T00:48:43;101456.94;;;19.37;56.39
45523;BME280;31254;51.680;5.394;2023-07-20T00:51:12;101292.53;;;18.37;56.68
45523;BME280;31254;51.680;5.394;2023-07-20T00:53:39;101458.00;;;19.36;56.35
45523;BME280;31254;51.680;5.394;2023-07-20T00:56:06;101252.81;;;18.08;56.50
45523;BME280;31254;51.680;5.394;2023-07-20T00:58:35;101352.44;;;18.66;56.66
45523;BME280;31254;51.680;5.394;2023-07-20T01:01:03;101435.59;;;19.16;56.25
45523;BME280;31254;51.680;5.394;2023-07-20T01:03:29;101385.88;;;18.86;56.48
45523;BME280;31254;51.680;5.394;2023-07-20T01:11:38;101265.16;;;17.97;56.73
45523;BME280;31254;51.680;5.394;2023-07-20T01:14:11;101340.78;;;18.41;56.51
45523;BME280;31254;51.680;5.394;2023-07-20T01:16:38;101318.31;;;18.29;57.63
45523;BME280;31254;51.680;5.394;2023-07-20T01:19:05;101377.47;;;18.64;57.01
45523;BME280;31254;51.680;5.394;2023-07-20T01:24:33;101465.38;;;19.14;57.77
45523;BME280;31254;51.680;5.394;2023-07-20T01:30:14;101467.00;;;19.08;58.73
45523;BME280;31254;51.680;5.394;2023-07-20T01:32:42;101475.50;;;19.07;58.29
45523;BME280;31254;51.680;5.394;2023-07-20T01:35:23;101433.59;;;18.80;57.25
45523;BME280;31254;51.680;5.394;2023-07-20T01:37:53;101286.41;;;17.97;57.52
45523;BME280;31254;51.680;5.394;2023-07-20T01:40:22;101480.06;;;18.99;57.89
45523;BME280;31254;51.680;5.394;2023-07-20T01:42:50;101290.09;;;17.89;58.04
45523;BME280;31254;51.680;5.394;2023-07-20T01:45:18;101326.00;;;18.04;57.72
45523;BME280;31254;51.680;5.394;2023-07-20T01:47:45;101474.63;;;18.91;58.19
45523;BME280;31254;51.680;5.394;2023-07-20T01:50:12;101341.50;;;18.05;57.90
45523;BME280;31254;51.680;5.394;2023-07-20T01:52:39;101339.13;;;18.02;58.03
45523;BME280;31254;51.680;5.394;2023-07-20T01:55:07;101458.47;;;18.80;57.97
45523;BME280;31254;51.680;5.394;2023-07-20T01:57:36;101323.88;;;17.91;57.94
45523;BME280;31254;51.680;5.394;2023-07-20T02:00:05;101386.94;;;18.17;57.72
45523;BME280;31254;51.680;5.394;2023-07-20T02:02:33;101300.63;;;17.62;57.30
45523;BME280;31254;51.680;5.394;2023-07-20T02:05:00;101302.34;;;17.63;57.76
45523;BME280;31254;51.680;5.394;2023-07-20T02:07:28;101322.47;;;17.72;57.79
45523;BME280;31254;51.680;5.394;2023-07-20T02:09:54;101385.88;;;18.03;58.15
45523;BME280;31254;51.680;5.394;2023-07-20T02:12:21;101295.06;;;17.47;57.62
45523;BME280;31254;51.680;5.394;2023-07-20T02:14:48;101485.00;;;18.51;57.56
45523;BME280;31254;51.680;5.394;2023-07-20T02:17:20;101282.13;;;17.25;57.58
45523;BME280;31254;51.680;5.394;2023-07-20T02:19:50;101393.22;;;17.88;57.65
45523;BME280;31254;51.680;5.394;2023-07-20T02:22:17;101308.97;;;17.31;57.16
45523;BME280;31254;51.680;5.394;2023-07-20T02:24:44;101358.38;;;17.64;57.83
45523;BME280;31254;51.680;5.394;2023-07-20T02:27:12;101447.31;;;18.20;57.50
45523;BME280;31254;51.680;5.394;2023-07-20T02:29:40;101453.00;;;18.19;57.37
45523;BME280;31254;51.680;5.394;2023-07-20T02:32:08;101308.50;;;17.27;57.64
45523;BME280;31254;51.680;5.394;2023-07-20T02:34:38;101494.19;;;18.28;57.77
45523;BME280;31254;51.680;5.394;2023-07-20T02:37:05;101290.44;;;16.93;57.41
45523;BME280;31254;51.680;5.394;2023-07-20T02:39:34;101261.72;;;16.79;57.58
45523;BME280;31254;51.680;5.394;2023-07-20T02:42:03;101492.63;;;18.11;57.65
45523;BME280;31254;51.680;5.394;2023-07-20T02:44:30;101448.94;;;17.92;57.45
45523;BME280;31254;51.680;5.394;2023-07-20T02:46:57;101398.19;;;17.46;57.75
45523;BME280;31254;51.680;5.394;2023-07-20T02:49:24;101458.09;;;17.84;57.20
45523;BME280;31254;51.680;5.394;2023-07-20T02:51:51;101441.13;;;17.64;57.76
45523;BME280;31254;51.680;5.394;2023-07-20T02:54:18;101384.28;;;17.31;57.14
45523;BME280;31254;51.680;5.394;2023-07-20T02:56:45;101520.28;;;18.03;57.53
45523;BME280;31254;51.680;5.394;2023-07-20T02:59:12;101334.00;;;16.98;57.38
45523;BME280;31254;51.680;5.394;2023-07-20T03:01:39;101344.16;;;16.97;57.46
45523;BME280;31254;51.680;5.394;2023-07-20T03:04:08;101227.59;;;16.18;57.46
45523;BME280;31254;51.680;5.394;2023-07-20T03:06:37;101530.69;;;17.93;57.08
45523;BME280;31254;51.680;5.394;2023-07-20T03:09:08;101376.72;;;16.94;57.16
45523;BME280;31254;51.680;5.394;2023-07-20T03:11:36;101424.78;;;17.31;57.30
45523;BME280;31254;51.680;5.394;2023-07-20T03:14:03;101316.94;;;16.55;57.36
45523;BME280;31254;51.680;5.394;2023-07-20T03:16:31;101357.78;;;16.82;57.47
45523;BME280;31254;51.680;5.394;2023-07-20T03:19:01;101526.78;;;17.79;57.39
45523;BME280;31254;51.680;5.394;2023-07-20T03:21:29;101526.66;;;17.72;57.26
45523;BME280;31254;51.680;5.394;2023-07-20T03:23:58;101440.03;;;17.10;57.51
45523;BME280;31254;51.680;5.394;2023-07-20T03:26:25;101297.44;;;16.25;57.46
45523;BME280;31254;51.680;5.394;2023-07-20T03:28:52;101503.66;;;17.48;57.59
45523;BME280;31254;51.680;5.394;2023-07-20T03:31:21;101375.81;;;16.62;57.33
45523;BME280;31254;51.680;5.394;2023-07-20T03:33:48;101434.63;;;16.86;57.50
45523;BME280;31254;51.680;5.394;2023-07-20T03:36:15;101485.88;;;17.11;57.32
45523;BME280;31254;51.680;5.394;2023-07-20T03:38:42;101545.03;;;17.48;57.41
45523;BME280;31254;51.680;5.394;2023-07-20T03:41:09;101560.91;;;17.46;57.68
45523;BME280;31254;51.680;5.394;2023-07-20T03:43:38;101307.63;;;15.92;57.88
45523;BME280;31254;51.680;5.394;2023-07-20T03:46:05;101545.41;;;17.37;57.62
45523;BME280;31254;51.680;5.394;2023-07-20T03:48:34;101355.25;;;16.17;57.74
45523;BME280;31254;51.680;5.394;2023-07-20T03:51:01;101545.94;;;17.32;57.69
45523;BME280;31254;51.680;5.394;2023-07-20T03:53:28;101556.78;;;17.34;57.87
45523;BME280;31254;51.680;5.394;2023-07-20T03:55:55;101263.28;;;15.62;57.68
45523;BME280;31254;51.680;5.394;2023-07-20T03:58:22;101399.25;;;16.33;57.70
45523;BME280;31254;51.680;5.394;2023-07-20T04:00:51;101560.59;;;17.25;57.94
45523;BME280;31254;51.680;5.394;2023-07-20T04:03:19;101403.22;;;16.22;57.72
45523;BME280;31254;51.680;5.394;2023-07-20T04:05:47;101553.06;;;17.18;57.80
45523;BME280;31254;51.680;5.394;2023-07-20T04:08:14;101470.28;;;16.62;57.78
45523;BME280;31254;51.680;5.394;2023-07-20T04:10:44;101380.03;;;16.08;57.76
45523;BME280;31254;51.680;5.394;2023-07-20T04:13:11;101472.38;;;16.60;57.89
45523;BME280;31254;51.680;5.394;2023-07-20T04:15:39;101322.91;;;15.69;57.89
45523;BME280;31254;51.680;5.394;2023-07-20T04:18:06;101329.47;;;15.68;57.79
45523;BME280;31254;51.680;5.394;2023-07-20T04:20:33;101494.56;;;16.67;57.85
45523;BME280;31254;51.680;5.394;2023-07-20T04:23:00;101540.53;;;16.91;58.20
45523;BME280;31254;51.680;5.394;2023-07-20T04:25:27;101354.91;;;15.87;57.94
45523;BME280;31254;51.680;5.394;2023-07-20T04:27:53;101568.59;;;17.03;58.12
45523;BME280;31254;51.680;5.394;2023-07-20T04:30:22;101489.75;;;16.61;58.33
45523;BME280;31254;51.680;5.394;2023-07-20T04:32:49;101489.25;;;16.57;58.52
45523;BME280;31254;51.680;5.394;2023-07-20T04:38:04;101542.06;;;16.94;58.71
45523;BME280;31254;51.680;5.394;2023-07-20T04:40:32;101437.97;;;16.32;59.13
45523;BME280;31254;51.680;5.394;2023-07-20T04:42:59;101554.81;;;16.95;59.27
45523;BME280;31254;51.680;5.394;2023-07-20T04:45:26;101461.72;;;16.41;59.11
45523;BME280;31254;51.680;5.394;2023-07-20T04:47:53;101425.75;;;16.18;59.26
45523;BME280;31254;51.680;5.394;2023-07-20T04:50:20;101492.19;;;16.48;59.43
45523;BME280;31254;51.680;5.394;2023-07-20T04:52:47;101454.34;;;16.25;59.30
45523;BME280;31254;51.680;5.394;2023-07-20T04:55:15;101555.00;;;16.85;59.52
45523;BME280;31254;51.680;5.394;2023-07-20T04:57:41;101328.56;;;15.51;58.93
45523;BME280;31254;51.680;5.394;2023-07-20T05:00:09;101558.28;;;16.89;59.19
45523;BME280;31254;51.680;5.394;2023-07-20T05:02:39;101273.41;;;15.20;59.25
45523;BME280;31254;51.680;5.394;2023-07-20T05:05:07;101520.88;;;16.70;59.41
45523;BME280;31254;51.680;5.394;2023-07-20T05:07:34;101474.59;;;16.49;59.39
45523;BME280;31254;51.680;5.394;2023-07-20T05:10:03;101478.91;;;16.51;59.13
45523;BME280;31254;51.680;5.394;2023-07-20T05:12:30;101343.72;;;15.64;59.17
45523;BME280;31254;51.680;5.394;2023-07-20T05:14:57;101474.97;;;16.37;59.25
45523;BME280;31254;51.680;5.394;2023-07-20T05:17:26;101389.00;;;15.86;59.30
45523;BME280;31254;51.680;5.394;2023-07-20T05:19:54;101527.44;;;16.69;59.72
45523;BME280;31254;51.680;5.394;2023-07-20T05:22:20;101386.91;;;15.80;59.81
45523;BME280;31254;51.680;5.394;2023-07-20T05:24:47;101479.09;;;16.41;59.73
45523;BME280;31254;51.680;5.394;2023-07-20T05:27:16;101553.81;;;16.96;59.63
45523;BME280;31254;51.680;5.394;2023-07-20T05:29:46;101415.44;;;16.12;59.83
45523;BME280;31254;51.680;5.394;2023-07-20T05:32:14;101527.78;;;16.74;59.83
45523;BME280;31254;51.680;5.394;2023-07-20T05:34:41;101583.53;;;17.09;59.77
45523;BME280;31254;51.680;5.394;2023-07-20T05:37:08;101583.91;;;17.14;59.90
45523;BME280;31254;51.680;5.394;2023-07-20T05:39:38;101574.41;;;17.16;60.22
45523;BME280;31254;51.680;5.394;2023-07-20T05:42:05;101447.41;;;16.45;60.21
45523;BME280;31254;51.680;5.394;2023-07-20T05:44:35;101439.50;;;16.51;60.83
45523;BME280;31254;51.680;5.394;2023-07-20T05:47:04;101526.41;;;17.03;60.96
45523;BME280;31254;51.680;5.394;2023-07-20T05:49:31;101463.91;;;16.70;61.02
45523;BME280;31254;51.680;5.394;2023-07-20T05:51:58;101351.63;;;16.08;61.33
45523;BME280;31254;51.680;5.394;2023-07-20T05:54:25;101596.69;;;17.63;61.61
45523;BME280;31254;51.680;5.394;2023-07-20T05:56:53;101439.09;;;16.78;62.78
45523;BME280;31254;51.680;5.394;2023-07-20T05:59:20;101339.03;;;16.30;62.66
45523;BME280;31254;51.680;5.394;2023-07-20T06:01:47;101579.16;;;17.87;63.10
45523;BME280;31254;51.680;5.394;2023-07-20T06:04:16;101596.69;;;18.02;63.52
45523;BME280;31254;51.680;5.394;2023-07-20T06:06:43;101600.97;;;18.13;63.18
45523;BME280;31254;51.680;5.394;2023-07-20T06:09:12;101570.59;;;18.13;63.58
45523;BME280;31254;51.680;5.394;2023-07-20T06:11:42;101447.47;;;17.49;63.19
45523;BME280;31254;51.680;5.394;2023-07-20T06:14:09;101370.09;;;17.11;63.63
45523;BME280;31254;51.680;5.394;2023-07-20T06:16:37;101529.00;;;18.15;63.98
45523;BME280;31254;51.680;5.394;2023-07-20T06:19:04;101600.94;;;18.68;63.75
45523;BME280;31254;51.680;5.394;2023-07-20T06:21:30;101603.44;;;18.77;63.63
45523;BME280;31254;51.680;5.394;2023-07-20T06:23:57;101594.22;;;18.85;63.65
45523;BME280;31254;51.680;5.394;2023-07-20T06:26:27;101516.34;;;18.43;63.24
45523;BME280;31254;51.680;5.394;2023-07-20T06:28:58;101598.00;;;19.07;64.13
45523;BME280;31254;51.680;5.394;2023-07-20T06:31:26;101364.88;;;17.71;63.65
45523;BME280;31254;51.680;5.394;2023-07-20T06:33:53;101525.19;;;18.77;64.14
45523;BME280;31254;51.680;5.394;2023-07-20T06:36:26;101397.94;;;18.02;63.69
45523;BME280;31254;51.680;5.394;2023-07-20T06:38:55;101507.56;;;18.78;63.19
45523;BME280;31254;51.680;5.394;2023-07-20T06:41:26;101521.03;;;18.96;63.70
45523;BME280;31254;51.680;5.394;2023-07-20T06:43:56;101615.31;;;19.54;64.26
45523;BME280;31254;51.680;5.394;2023-07-20T06:46:28;101531.34;;;19.32;64.35
45523;BME280;31254;51.680;5.394;2023-07-20T06:48:56;101599.84;;;19.75;64.29
45523;BME280;31254;51.680;5.394;2023-07-20T06:51:28;101517.13;;;19.35;64.62
45523;BME280;31254;51.680;5.394;2023-07-20T06:53:55;101599.56;;;19.99;64.30
45523;BME280;31254;51.680;5.394;2023-07-20T06:56:23;101499.09;;;19.54;64.24
45523;BME280;31254;51.680;5.394;2023-07-20T06:58:53;101591.06;;;20.22;64.73
45523;BME280;31254;51.680;5.394;2023-07-20T07:01:20;101371.38;;;18.99;64.57
45523;BME280;31254;51.680;5.394;2023-07-20T07:03:49;101467.97;;;19.67;64.48
45523;BME280;31254;51.680;5.394;2023-07-20T07:06:21;101566.97;;;20.38;64.51
45523;BME280;31254;51.680;5.394;2023-07-20T07:08:51;101607.81;;;20.72;64.95
45523;BME280;31254;51.680;5.394;2023-07-20T07:11:21;101404.13;;;19.68;64.22
45523;BME280;31254;51.680;5.394;2023-07-20T07:13:52;101469.59;;;20.19;64.19
45523;BME280;31254;51.680;5.394;2023-07-20T07:16:23;101517.50;;;20.63;64.29
45523;BME280;31254;51.680;5.394;2023-07-20T07:18:51;101366.66;;;19.87;64.42
45523;BME280;31254;51.680;5.394;2023-07-20T07:21:26;101603.66;;;21.40;64.44
45523;BME280;31254;51.680;5.394;2023-07-20T07:23:53;101375.81;;;20.16;63.95
45523;BME280;31254;51.680;5.394;2023-07-20T07:26:24;101374.41;;;20.27;63.74
45523;BME280;31254;51.680;5.394;2023-07-20T07:28:51;101512.16;;;21.18;63.68
45523;BME280;31254;51.680;5.394;2023-07-20T07:31:18;101407.91;;;20.60;63.52
45523;BME280;31254;51.680;5.394;2023-07-20T07:33:45;101480.56;;;21.12;63.57
45523;BME280;31254;51.680;5.394;2023-07-20T07:36:12;101585.59;;;21.92;63.69
45523;BME280;31254;51.680;5.394;2023-07-20T07:38:39;101420.81;;;21.10;63.59
45523;BME280;31254;51.680;5.394;2023-07-20T07:41:26;101599.88;;;22.31;62.92
45523;BME280;31254;51.680;5.394;2023-07-20T07:43:53;101560.88;;;22.17;62.63
45523;BME280;31254;51.680;5.394;2023-07-20T07:46:21;101600.34;;;22.54;62.95
45523;BME280;31254;51.680;5.394;2023-07-20T07:48:48;101428.25;;;21.51;62.15
45523;BME280;31254;51.680;5.394;2023-07-20T07:51:16;101387.66;;;21.43;62.30
45523;BME280;31254;51.680;5.394;2023-07-20T07:53:43;101479.25;;;22.05;62.40
45523;BME280;31254;51.680;5.394;2023-07-20T07:56:10;101488.22;;;22.20;61.90
45523;BME280;31254;51.680;5.394;2023-07-20T07:58:38;101480.38;;;22.31;61.65
45523;BME280;31254;51.680;5.394;2023-07-20T08:01:05;101620.94;;;23.20;62.12
45523;BME280;31254;51.680;5.394;2023-07-20T08:03:32;101607.22;;;23.32;61.25
45523;BME280;31254;51.680;5.394;2023-07-20T08:05:59;101397.16;;;22.09;61.41
45523;BME280;31254;51.680;5.394;2023-07-20T08:08:26;101508.81;;;22.86;61.51
45523;BME280;31254;51.680;5.394;2023-07-20T08:10:54;101612.09;;;23.63;61.67
45523;BME280;31254;51.680;5.394;2023-07-20T08:13:22;101631.31;;;23.85;60.89
45523;BME280;31254;51.680;5.394;2023-07-20T08:15:51;101497.63;;;23.13;59.99
45523;BME280;31254;51.680;5.394;2023-07-20T08:18:21;101410.84;;;22.77;59.27
45523;BME280;31254;51.680;5.394;2023-07-20T08:20:48;101609.38;;;24.02;58.67
45523;BME280;31254;51.680;5.394;2023-07-20T08:23:17;101431.31;;;22.96;58.37
45523;BME280;31254;51.680;5.394;2023-07-20T08:25:44;101498.63;;;23.39;58.19
45523;BME280;31254;51.680;5.394;2023-07-20T08:28:14;101547.56;;;23.66;58.01
45523;BME280;31254;51.680;5.394;2023-07-20T08:33:14;101560.84;;;23.71;57.02
45523;BME280;31254;51.680;5.394;2023-07-20T08:35:42;101584.81;;;23.79;56.93
45523;BME280;31254;51.680;5.394;2023-07-20T08:38:15;101419.63;;;22.74;53.50
45523;BME280;31254;51.680;5.394;2023-07-20T08:40:46;101446.34;;;22.69;52.79
45523;BME280;31254;51.680;5.394;2023-07-20T08:44:06;101505.16;;;22.86;52.92
45523;BME280;31254;51.680;5.394;2023-07-20T08:46:35;101493.41;;;22.70;53.78
45523;BME280;31254;51.680;5.394;2023-07-20T08:49:04;101493.00;;;22.67;52.60
45523;BME280;31254;51.680;5.394;2023-07-20T08:51:32;101405.94;;;22.06;52.65
45523;BME280;31254;51.680;5.394;2023-07-20T08:54:29;101628.41;;;23.40;53.45
45523;BME280;31254;51.680;5.394;2023-07-20T08:57:06;101549.00;;;22.90;52.33
45523;BME280;31254;51.680;5.394;2023-07-20T08:59:39;101459.19;;;22.36;52.64
45523;BME280;31254;51.680;5.394;2023-07-20T09:02:08;101600.81;;;23.25;54.63
45523;BME280;31254;51.680;5.394;2023-07-20T09:04:44;101485.25;;;22.75;54.67
45523;BME280;31254;51.680;5.394;2023-07-20T09:07:15;101532.53;;;23.15;54.25
45523;BME280;31254;51.680;5.394;2023-07-20T09:09:43;101490.34;;;23.25;54.04
45523;BME280;31254;51.680;5.394;2023-07-20T09:12:15;101374.91;;;22.62;54.02
45523;BME280;31254;51.680;5.394;2023-07-20T09:14:44;101612.53;;;24.19;54.72
45523;BME280;31254;51.680;5.394;2023-07-20T09:17:17;101429.53;;;23.22;54.83
45523;BME280;31254;51.680;5.394;2023-07-20T09:19:47;101411.75;;;23.30;54.88
45523;BME280;31254;51.680;5.394;2023-07-20T09:22:15;101469.78;;;23.78;54.18
45523;BME280;31254;51.680;5.394;2023-07-20T09:24:43;101592.50;;;24.74;54.13
45523;BME280;31254;51.680;5.394;2023-07-20T09:27:14;101386.97;;;23.60;54.11
45523;BME280;31254;51.680;5.394;2023-07-20T09:29:51;101617.66;;;25.17;53.95
45523;BME280;31254;51.680;5.394;2023-07-20T09:32:19;101367.94;;;23.89;53.61
45523;BME280;31254;51.680;5.394;2023-07-20T09:34:53;101460.44;;;24.55;53.67
45523;BME280;31254;51.680;5.394;2023-07-20T09:37:22;101465.75;;;24.63;52.96
45523;BME280;31254;51.680;5.394;2023-07-20T09:39:53;101520.19;;;25.16;52.90
45523;BME280;31254;51.680;5.394;2023-07-20T09:42:24;101429.91;;;24.67;51.70
45523;BME280;31254;51.680;5.394;2023-07-20T09:44:56;101586.88;;;25.68;51.37
45523;BME280;31254;51.680;5.394;2023-07-20T09:47:24;101523.47;;;25.31;51.13
45523;BME280;31254;51.680;5.394;2023-07-20T09:50:00;101458.44;;;24.87;51.55
45523;BME280;31254;51.680;5.394;2023-07-20T09:52:31;101559.88;;;25.62;51.01
45523;BME280;31254;51.680;5.394;2023-07-20T09:55:03;101491.97;;;25.24;51.34
45523;BME280;31254;51.680;5.394;2023-07-20T09:57:34;101481.25;;;25.21;51.42
45523;BME280;31254;51.680;5.394;2023-07-20T10:00:07;101613.41;;;25.96;49.42
45523;BME280;31254;51.680;5.394;2023-07-20T10:02:51;101373.88;;;24.68;50.34
45523;BME280;31254;51.680;5.394;2023-07-20T10:05:19;101350.44;;;24.51;50.69
45523;BME280;31254;51.680;5.394;2023-07-20T10:07:49;101521.69;;;25.55;50.64
45523;BME280;31254;51.680;5.394;2023-07-20T10:10:49;101444.50;;;25.24;50.50
45523;BME280;31254;51.680;5.394;2023-07-20T10:13:27;101587.63;;;26.12;49.65
45523;BME280;31254;51.680;5.394;2023-07-20T10:16:01;101600.19;;;26.21;50.72
45523;BME280;31254;51.680;5.394;2023-07-20T10:18:41;101388.69;;;25.06;50.91
45523;BME280;31254;51.680;5.394;2023-07-20T10:21:10;101478.41;;;25.65;50.63
45523;BME280;31254;51.680;5.394;2023-07-20T10:23:44;101525.38;;;26.05;50.78
45523;BME280;31254;51.680;5.394;2023-07-20T10:26:17;101506.94;;;26.16;50.26
45523;BME280;31254;51.680;5.394;2023-07-20T10:28:56;101487.59;;;26.14;49.86
45523;BME280;31254;51.680;5.394;2023-07-20T10:31:29;101525.63;;;26.57;50.25
45523;BME280;31254;51.680;5.394;2023-07-20T10:34:08;101489.28;;;26.57;49.70
45523;BME280;31254;51.680;5.394;2023-07-20T10:36:46;101365.97;;;25.93;48.95
45523;BME280;31254;51.680;5.394;2023-07-20T10:39:32;101474.84;;;26.84;48.24
45523;BME280;31254;51.680;5.394;2023-07-20T10:42:07;101481.00;;;27.10;48.07
45523;BME280;31254;51.680;5.394;2023-07-20T10:44:38;101450.47;;;27.08;47.90
45523;BME280;31254;51.680;5.394;2023-07-20T10:47:12;101568.44;;;28.00;48.26
45523;BME280;31254;51.680;5.394;2023-07-20T10:50:00;101464.56;;;27.49;47.31
45523;BME280;31254;51.680;5.394;2023-07-20T10:52:39;101589.78;;;28.30;46.54
45523;BME280;31254;51.680;5.394;2023-07-20T10:55:14;101504.72;;;27.95;46.76
45523;BME280;31254;51.680;5.394;2023-07-20T10:57:41;101559.69;;;28.25;46.50
45523;BME280;31254;51.680;5.394;2023-07-20T11:00:10;101389.09;;;27.30;45.17
45523;BME280;31254;51.680;5.394;2023-07-20T11:02:49;101471.00;;;27.78;45.78
45523;BME280;31254;51.680;5.394;2023-07-20T11:05:37;101557.25;;;28.45;45.66
45523;BME280;31254;51.680;5.394;2023-07-20T11:08:09;101493.69;;;28.05;45.56
45523;BME280;31254;51.680;5.394;2023-07-20T11:10:42;101447.56;;;27.84;44.65
45523;BME280;31254;51.680;5.394;2023-07-20T11:13:20;101555.16;;;28.53;44.70
45523;BME280;31254;51.680;5.394;2023-07-20T11:18:27;101436.25;;;27.79;45.13
45523;BME280;31254;51.680;5.394;2023-07-20T11:20:58;101391.81;;;27.54;44.62
45523;BME280;31254;51.680;5.394;2023-07-20T11:23:29;101430.91;;;27.78;45.01
45523;BME280;31254;51.680;5.394;2023-07-20T11:26:01;101474.78;;;28.13;45.13
45523;BME280;31254;51.680;5.394;2023-07-20T11:28:33;101556.28;;;28.69;45.18
45523;BME280;31254;51.680;5.394;2023-07-20T11:31:01;101536.47;;;28.58;45.33
45523;BME280;31254;51.680;5.394;2023-07-20T11:33:28;101478.44;;;28.30;44.64
45523;BME280;31254;51.680;5.394;2023-07-20T11:35:56;101539.81;;;28.72;44.96
45523;BME280;31254;51.680;5.394;2023-07-20T11:38:28;101536.25;;;28.77;44.03
45523;BME280;31254;51.680;5.394;2023-07-20T11:40:56;101449.28;;;28.31;44.68
45523;BME280;31254;51.680;5.394;2023-07-20T11:43:27;101408.66;;;28.17;44.79
45523;BME280;31254;51.680;5.394;2023-07-20T11:45:55;101526.50;;;29.02;44.35
45523;BME280;31254;51.680;5.394;2023-07-20T11:48:23;101525.56;;;29.13;44.08
45523;BME280;31254;51.680;5.394;2023-07-20T11:51:01;101406.19;;;28.54;43.30
45523;BME280;31254;51.680;5.394;2023-07-20T11:53:31;101463.88;;;29.01;43.07
45523;BME280;31254;51.680;5.394;2023-07-20T11:56:00;101413.00;;;28.75;43.24
45523;BME280;31254;51.680;5.394;2023-07-20T11:58:28;101474.97;;;29.30;43.14
45523;BME280;31254;51.680;5.394;2023-07-20T12:00:55;101521.56;;;29.70;43.18
45523;BME280;31254;51.680;5.394;2023-07-20T12:03:23;101350.31;;;28.70;41.80
45523;BME280;31254;51.680;5.394;2023-07-20T12:05:50;101472.22;;;29.57;42.91
45523;BME280;31254;51.680;5.394;2023-07-20T12:08:30;101427.47;;;29.28;42.58
45523;BME280;31254;51.680;5.394;2023-07-20T12:10:57;101522.13;;;29.89;41.71
45523;BME280;31254;51.680;5.394;2023-07-20T12:13:38;101316.31;;;28.66;42.43
45523;BME280;31254;51.680;5.394;2023-07-20T12:16:13;101531.19;;;29.96;42.48
45523;BME280;31254;51.680;5.394;2023-07-20T12:18:42;101376.03;;;29.06;41.75
45523;BME280;31254;51.680;5.394;2023-07-20T12:21:10;101520.50;;;29.98;42.03
45523;BME280;31254;51.680;5.394;2023-07-20T12:23:39;101523.94;;;30.00;41.79
45523;BME280;31254;51.680;5.394;2023-07-20T12:26:08;101309.56;;;28.89;42.24
45523;BME280;31254;51.680;5.394;2023-07-20T12:28:40;101320.59;;;28.96;41.93
45523;BME280;31254;51.680;5.394;2023-07-20T12:31:10;101421.91;;;29.56;41.76
45523;BME280;31254;51.680;5.394;2023-07-20T12:33:37;101441.69;;;29.66;40.52
45523;BME280;31254;51.680;5.394;2023-07-20T12:36:05;101459.72;;;29.70;40.06
45523;BME280;31254;51.680;5.394;2023-07-20T12:38:34;101407.34;;;29.36;39.93
45523;BME280;31254;51.680;5.394;2023-07-20T12:41:02;101319.84;;;28.78;40.39
45523;BME280;31254;51.680;5.394;2023-07-20T12:43:29;101434.06;;;29.39;40.83
45523;BME280;31254;51.680;5.394;2023-07-20T12:45:59;101303.34;;;28.43;40.21
45523;BME280;31254;51.680;5.394;2023-07-20T12:48:26;101417.00;;;29.02;39.78
45523;BME280;31254;51.680;5.394;2023-07-20T12:50:53;101351.34;;;28.47;39.72
45523;BME280;31254;51.680;5.394;2023-07-20T12:53:21;101513.94;;;29.43;40.26
45523;BME280;31254;51.680;5.394;2023-07-20T12:55:48;101537.44;;;29.37;40.46
45523;BME280;31254;51.680;5.394;2023-07-20T12:58:17;101527.38;;;29.19;40.17
45523;BME280;31254;51.680;5.394;2023-07-20T13:00:45;101416.41;;;28.43;39.87
45523;BME280;31254;51.680;5.394;2023-07-20T13:03:11;101423.13;;;28.25;40.35
45523;BME280;31254;51.680;5.394;2023-07-20T13:05:55;101459.47;;;28.37;40.32
45523;BME280;31254;51.680;5.394;2023-07-20T13:08:25;101530.44;;;28.67;40.56
45523;BME280;31254;51.680;5.394;2023-07-20T13:10:53;101504.03;;;28.34;41.43
45523;BME280;31254;51.680;5.394;2023-07-20T13:13:20;101544.47;;;28.38;41.66
45523;BME280;31254;51.680;5.394;2023-07-20T13:15:48;101338.88;;;27.00;42.05
45523;BME280;31254;51.680;5.394;2023-07-20T13:18:15;101404.81;;;27.31;42.21
45523;BME280;31254;51.680;5.394;2023-07-20T13:20:42;101547.50;;;28.02;42.93
45523;BME280;31254;51.680;5.394;2023-07-20T13:23:11;101411.66;;;27.12;43.15